Time;durP1;ratioP1;P1;durP2;ratioP2;P2;SDS_P1;SDS_P2;PMS_P1;PMS_P2;Temp;Humidity;BMP_temperature;BMP_pressure;BME280_temperature;BME280_humidity;BME280_pressure;Samples;Min_cycle;Max_cycle;Signal;HPM_P1;HPM_P2
2023/12/21 00:01:50;;;;;;;3.53;1.00;;;9.50;72.70;;;;;;2300880;56;20994;-70
2023/12/21 00:04:17;;;;;;;3.92;1.20;;;9.50;72.80;;;;;;2299908;56;20987;-68
2023/12/21 00:06:43;;;;;;;4.32;1.10;;;9.50;72.70;;;;;;2536833;54;21571;-71
2023/12/21 00:09:10;;;;;;;3.03;0.95;;;9.50;72.80;;;;;;2299563;56;21076;-69
2023/12/21 00:11:37;;;;;;;4.75;1.10;;;9.50;72.80;;;;;;2534943;54;21402;-70
2023/12/21 00:14:03;;;;;;;2.85;1.00;;;9.50;72.70;;;;;;2290215;55;21051;-69
2023/12/21 00:16:29;;;;;;;2.00;0.77;;;9.50;72.70;;;;;;2300604;56;21548;-71
2023/12/21 00:18:56;;;;;;;2.33;0.90;;;9.50;72.80;;;;;;2300300;56;21011;-68
2023/12/21 00:21:25;;;;;;;4.07;1.00;;;9.50;72.80;;;;;;2536216;54;20976;-69
2023/12/21 00:23:51;;;;;;;3.83;0.90;;;9.50;72.80;;;;;;2300263;55;20988;-69
2023/12/21 00:26:19;;;;;;;2.33;0.90;;;9.50;72.90;;;;;;2537063;54;21184;-69
2023/12/21 00:28:45;;;;;;;2.80;0.90;;;9.60;73.00;;;;;;2537541;54;20962;-71
2023/12/21 00:31:11;;;;;;;4.70;1.00;;;9.60;73.00;;;;;;2271046;55;20987;-70
2023/12/21 00:33:38;;;;;;;2.62;0.90;;;9.60;73.00;;;;;;2287897;56;21485;-70
2023/12/21 00:36:06;;;;;;;2.30;0.73;;;9.60;73.00;;;;;;2299917;56;21872;-69
2023/12/21 00:38:32;;;;;;;3.62;1.00;;;9.60;72.90;;;;;;2536797;54;20980;-68
2023/12/21 00:40:59;;;;;;;4.68;1.10;;;9.60;72.90;;;;;;2302298;55;21040;-70
2023/12/21 00:43:25;;;;;;;5.37;1.25;;;9.60;72.90;;;;;;2519634;54;20956;-69
2023/12/21 00:45:52;;;;;;;2.55;0.80;;;9.60;72.90;;;;;;2536727;54;20960;-69
2023/12/21 00:48:19;;;;;;;2.22;0.82;;;9.60;73.00;;;;;;2294683;56;20946;-69
2023/12/21 00:50:45;;;;;;;3.08;1.15;;;9.60;73.70;;;;;;2528557;54;20987;-69
2023/12/21 00:53:12;;;;;;;1.87;0.68;;;9.60;73.00;;;;;;2489417;55;20984;-68
2023/12/21 00:55:38;;;;;;;2.20;0.62;;;9.60;73.10;;;;;;2490112;55;21675;-68
2023/12/21 00:58:06;;;;;;;2.87;0.80;;;9.60;73.10;;;;;;2260635;56;20982;-69
2023/12/21 01:00:33;;;;;;;2.40;0.93;;;9.60;73.00;;;;;;2489414;54;21341;-70
2023/12/21 01:02:59;;;;;;;2.10;0.60;;;9.60;73.10;;;;;;2261242;56;21881;-71
2023/12/21 01:05:25;;;;;;;2.35;0.77;;;9.60;73.10;;;;;;2489190;55;21010;-69
2023/12/21 01:07:52;;;;;;;3.42;0.90;;;9.60;73.10;;;;;;2260952;56;21010;-70
2023/12/21 01:10:18;;;;;;;2.65;0.80;;;9.60;73.10;;;;;;2260660;56;21761;-69
2023/12/21 01:12:44;;;;;;;2.20;0.77;;;9.60;73.10;;;;;;2486461;54;21413;-70
2023/12/21 01:15:13;;;;;;;2.17;0.62;;;9.70;73.20;;;;;;2475556;55;20955;-71
2023/12/21 01:17:41;;;;;;;2.08;0.60;;;9.70;73.20;;;;;;2261298;56;20958;-69
2023/12/21 01:20:10;;;;;;;1.80;0.68;;;9.70;73.20;;;;;;2489077;55;21488;-70
2023/12/21 01:22:40;;;;;;;2.60;0.70;;;9.70;73.30;;;;;;2489456;55;22194;-69
2023/12/21 01:25:11;;;;;;;2.12;0.70;;;9.70;73.20;;;;;;2489445;55;21029;-69
2023/12/21 01:27:39;;;;;;;1.92;0.60;;;9.70;73.30;;;;;;2495661;55;21143;-69
2023/12/21 01:30:09;;;;;;;2.30;0.80;;;9.70;73.20;;;;;;2446043;54;21013;-69
2023/12/21 01:32:35;;;;;;;1.90;0.70;;;9.70;73.10;;;;;;2489264;54;21777;-70
2023/12/21 01:35:02;;;;;;;3.10;0.70;;;9.70;73.20;;;;;;2261439;56;21058;-69
2023/12/21 01:37:28;;;;;;;1.37;0.52;;;9.80;73.40;;;;;;2260766;56;20972;-69
2023/12/21 01:39:54;;;;;;;2.20;0.77;;;9.70;73.20;;;;;;2488284;54;21545;-69
2023/12/21 01:42:23;;;;;;;1.87;0.68;;;9.80;73.20;;;;;;2246388;56;21265;-69
2023/12/21 01:44:50;;;;;;;2.80;0.70;;;9.80;73.20;;;;;;2246066;56;20962;-69
2023/12/21 01:47:16;;;;;;;2.42;0.60;;;9.80;73.30;;;;;;2489261;54;21021;-69
2023/12/21 01:49:43;;;;;;;3.22;0.70;;;9.80;73.30;;;;;;2488475;54;21388;-69
2023/12/21 01:52:09;;;;;;;2.03;0.80;;;9.80;73.10;;;;;;2260593;56;21054;-69
2023/12/21 01:54:36;;;;;;;1.42;0.68;;;9.80;73.10;;;;;;2488966;55;21743;-69
2023/12/21 01:57:02;;;;;;;1.98;0.60;;;9.80;73.00;;;;;;2260035;56;21026;-69
2023/12/21 01:59:29;;;;;;;0.95;0.50;;;9.80;73.10;;;;;;2488291;55;21002;-70
2023/12/21 02:01:56;;;;;;;1.35;0.50;;;9.90;73.10;;;;;;2265595;56;21425;-69
2023/12/21 02:04:23;;;;;;;1.45;0.45;;;9.80;73.10;;;;;;2247630;56;20969;-69
2023/12/21 02:06:49;;;;;;;1.60;0.50;;;9.90;73.20;;;;;;2488237;55;21050;-69
2023/12/21 02:09:16;;;;;;;1.08;0.75;;;9.90;73.10;;;;;;2488519;55;20895;-69
2023/12/21 02:11:42;;;;;;;1.27;0.52;;;9.90;73.00;;;;;;2488462;55;20958;-69
2023/12/21 02:14:09;;;;;;;1.27;0.40;;;9.90;73.10;;;;;;2260095;56;21414;-69
2023/12/21 02:17:21;;;;;;;2.20;0.68;;;9.90;73.10;;;;;;2260722;55;21563;-69
2023/12/21 02:19:48;;;;;;;1.55;0.40;;;9.90;72.40;;;;;;2294831;56;20991;-69
2023/12/21 02:22:15;;;;;;;0.93;0.40;;;9.90;73.10;;;;;;2537461;54;20939;-69
2023/12/21 02:24:42;;;;;;;2.10;0.70;;;9.90;73.20;;;;;;2299810;55;21068;-70
2023/12/21 02:27:08;;;;;;;1.23;0.45;;;9.90;73.20;;;;;;2298520;55;20956;-69
2023/12/21 02:29:35;;;;;;;1.25;0.50;;;10.00;72.20;;;;;;2519378;54;21045;-69
2023/12/21 02:32:01;;;;;;;1.48;0.55;;;10.00;72.20;;;;;;2533943;54;21389;-69
2023/12/21 02:34:27;;;;;;;1.58;0.60;;;10.00;72.10;;;;;;2299573;56;20948;-70
2023/12/21 02:36:54;;;;;;;0.90;0.40;;;10.00;72.10;;;;;;2301091;56;21039;-70
2023/12/21 02:39:20;;;;;;;3.25;0.60;;;10.00;72.10;;;;;;2284239;56;21056;-70
2023/12/21 02:41:47;;;;;;;1.45;0.60;;;10.00;71.90;;;;;;2535535;54;20976;-70
2023/12/21 02:44:13;;;;;;;1.83;0.47;;;10.00;71.90;;;;;;2536445;54;21008;-69
2023/12/21 02:46:40;;;;;;;3.62;0.50;;;10.00;72.00;;;;;;2533849;54;21319;-69
2023/12/21 02:49:07;;;;;;;1.90;0.60;;;9.90;73.00;;;;;;2299085;56;21860;-69
2023/12/21 02:51:33;;;;;;;1.87;0.60;;;10.00;72.00;;;;;;2302164;54;21514;-69
2023/12/21 02:53:59;;;;;;;2.65;0.47;;;10.00;72.00;;;;;;2519997;54;20935;-69
2023/12/21 02:56:27;;;;;;;2.25;0.60;;;10.00;72.00;;;;;;2536182;54;20972;-68
2023/12/21 02:58:53;;;;;;;1.50;0.68;;;10.00;72.00;;;;;;2295279;56;21439;-70
2023/12/21 03:01:20;;;;;;;1.20;0.50;;;10.00;72.00;;;;;;2272193;55;21321;-70
2023/12/21 03:03:46;;;;;;;1.52;0.57;;;10.00;72.00;;;;;;2290566;55;21592;-69
2023/12/21 03:06:13;;;;;;;0.95;0.35;;;10.00;72.10;;;;;;2299472;56;20995;-70
2023/12/21 03:08:40;;;;;;;1.40;0.50;;;10.00;72.10;;;;;;2536874;54;20971;-68
2023/12/21 03:11:09;;;;;;;0.85;0.45;;;10.00;72.00;;;;;;2536315;54;21433;-71
2023/12/21 03:13:36;;;;;;;1.67;0.68;;;10.00;72.10;;;;;;2536462;54;21067;-70
2023/12/21 03:16:06;;;;;;;2.20;0.57;;;10.00;72.10;;;;;;2299739;56;21019;-68
2023/12/21 03:18:33;;;;;;;0.82;0.40;;;10.10;72.10;;;;;;2536346;54;20980;-70
2023/12/21 03:20:59;;;;;;;0.80;0.40;;;10.10;72.20;;;;;;2299842;56;21003;-70
2023/12/21 03:23:25;;;;;;;2.37;0.50;;;10.00;72.10;;;;;;2537158;54;20947;-70
2023/12/21 03:25:52;;;;;;;2.83;0.43;;;10.00;72.20;;;;;;2261245;56;20959;-70
2023/12/21 03:28:20;;;;;;;0.47;0.30;;;10.10;72.30;;;;;;2488989;55;20986;-71
2023/12/21 03:30:49;;;;;;;1.55;0.45;;;10.10;72.30;;;;;;2488027;54;21019;-69
2023/12/21 03:33:15;;;;;;;0.90;0.50;;;10.10;72.20;;;;;;2260749;56;21042;-69
2023/12/21 03:35:42;;;;;;;0.73;0.30;;;10.10;72.20;;;;;;2488443;54;20973;-69
2023/12/21 03:38:09;;;;;;;0.25;0.20;;;10.10;72.20;;;;;;2487861;55;20990;-70
2023/12/21 03:40:35;;;;;;;2.15;0.45;;;10.10;72.20;;;;;;2259694;56;21319;-69
2023/12/21 03:43:02;;;;;;;0.62;0.30;;;10.10;72.20;;;;;;2259868;56;21099;-68
2023/12/21 03:45:29;;;;;;;1.17;0.40;;;10.10;72.20;;;;;;2488942;54;21266;-70
2023/12/21 03:47:57;;;;;;;0.80;0.30;;;10.10;72.20;;;;;;2265668;56;20963;-68
2023/12/21 03:50:24;;;;;;;1.23;0.30;;;10.10;72.20;;;;;;2488474;55;21463;-69
2023/12/21 03:52:52;;;;;;;0.50;0.30;;;10.20;72.40;;;;;;2477799;54;21013;-70
2023/12/21 03:55:21;;;;;;;0.85;0.40;;;10.20;72.30;;;;;;2461120;55;21094;-69
2023/12/21 03:57:47;;;;;;;1.90;0.50;;;10.10;72.20;;;;;;2473645;55;21043;-70
2023/12/21 04:00:18;;;;;;;1.73;0.50;;;10.20;72.30;;;;;;2259723;55;21946;-69
2023/12/21 04:02:47;;;;;;;1.05;0.37;;;10.20;72.40;;;;;;2532925;54;21429;-69
2023/12/21 04:05:13;;;;;;;0.68;0.30;;;10.20;72.30;;;;;;2299568;55;21042;-70
2023/12/21 04:07:40;;;;;;;0.90;0.40;;;10.20;72.40;;;;;;2297916;55;21590;-69
2023/12/21 04:10:08;;;;;;;0.60;0.30;;;10.20;72.40;;;;;;2505274;54;21050;-69
2023/12/21 04:12:35;;;;;;;0.47;0.20;;;10.20;72.30;;;;;;2536811;54;20956;-70
2023/12/21 04:15:01;;;;;;;0.37;0.20;;;10.20;72.40;;;;;;2537423;54;21319;-69
2023/12/21 04:17:28;;;;;;;1.27;0.20;;;10.20;72.40;;;;;;2261814;56;20947;-69
2023/12/21 04:19:54;;;;;;;0.73;0.30;;;10.20;72.40;;;;;;2489334;55;20954;-69
2023/12/21 04:22:21;;;;;;;2.83;0.43;;;10.20;72.40;;;;;;2489172;55;21050;-69
2023/12/21 04:24:48;;;;;;;0.57;0.30;;;10.30;72.50;;;;;;2488438;55;20970;-69
2023/12/21 04:27:14;;;;;;;0.88;0.30;;;10.20;72.30;;;;;;2488599;55;20935;-70
2023/12/21 04:29:40;;;;;;;1.08;0.30;;;10.30;72.40;;;;;;2265899;55;21053;-69
2023/12/21 04:32:06;;;;;;;0.52;0.20;;;10.30;72.40;;;;;;2260395;55;20967;-69
2023/12/21 04:34:33;;;;;;;0.52;0.28;;;10.30;72.50;;;;;;2494826;55;20949;-69
2023/12/21 04:37:00;;;;;;;0.40;0.20;;;10.30;72.40;;;;;;2501213;55;20946;-70
2023/12/21 04:39:26;;;;;;;0.47;0.25;;;10.30;72.50;;;;;;2496017;55;20915;-72
2023/12/21 04:41:52;;;;;;;0.57;0.30;;;10.30;72.50;;;;;;2286355;56;20964;-70
2023/12/21 04:44:21;;;;;;;0.45;0.20;;;10.30;72.50;;;;;;2286053;56;20952;-69
2023/12/21 04:46:51;;;;;;;0.40;0.30;;;10.30;72.40;;;;;;2520031;55;20947;-70
2023/12/21 04:49:22;;;;;;;0.65;0.30;;;10.30;72.30;;;;;;2285839;55;20951;-69
2023/12/21 04:51:48;;;;;;;0.30;0.20;;;10.30;72.50;;;;;;2285400;56;21102;-69
2023/12/21 04:54:16;;;;;;;0.43;0.28;;;10.40;72.60;;;;;;2484366;54;21072;-70
2023/12/21 04:56:42;;;;;;;0.22;0.20;;;10.40;72.50;;;;;;2512718;54;21437;-69
2023/12/21 04:59:09;;;;;;;0.70;0.30;;;10.30;72.40;;;;;;2520352;55;20996;-69
2023/12/21 05:01:35;;;;;;;0.90;0.40;;;10.40;72.50;;;;;;2286076;55;21016;-71
2023/12/21 05:04:06;;;;;;;0.55;0.25;;;10.40;72.60;;;;;;2286772;55;21004;-69
2023/12/21 05:06:33;;;;;;;1.05;0.30;;;10.40;72.50;;;;;;2281632;56;20957;-70
2023/12/21 05:08:59;;;;;;;1.05;0.40;;;10.40;72.60;;;;;;2520300;55;20947;-70
2023/12/21 05:11:26;;;;;;;1.10;0.30;;;10.40;72.60;;;;;;2286324;56;21336;-70
2023/12/21 05:13:52;;;;;;;0.80;0.35;;;10.40;72.60;;;;;;2520539;55;20967;-69
2023/12/21 05:16:19;;;;;;;1.17;0.40;;;10.40;72.70;;;;;;2286562;55;21703;-70
2023/12/21 05:18:49;;;;;;;1.30;0.40;;;10.40;72.60;;;;;;2520151;54;20960;-69
2023/12/21 05:21:15;;;;;;;1.02;0.50;;;10.50;72.70;;;;;;2519977;55;20996;-70
2023/12/21 05:23:42;;;;;;;1.70;0.68;;;10.50;72.80;;;;;;2520336;54;20956;-69
2023/12/21 05:26:11;;;;;;;1.62;0.57;;;10.50;72.80;;;;;;2287178;56;20936;-69
2023/12/21 05:28:41;;;;;;;1.00;0.45;;;10.50;72.70;;;;;;2273412;55;21535;-67
2023/12/21 05:31:09;;;;;;;2.00;0.57;;;10.50;72.80;;;;;;2475440;55;20980;-69
2023/12/21 05:33:36;;;;;;;0.95;0.40;;;10.50;72.80;;;;;;2260644;56;21483;-70
2023/12/21 05:36:02;;;;;;;0.50;0.30;;;10.50;72.80;;;;;;2494037;55;20924;-70
2023/12/21 05:38:29;;;;;;;0.68;0.30;;;10.60;72.90;;;;;;2275338;56;20962;-69
2023/12/21 05:40:55;;;;;;;1.02;0.37;;;10.50;72.80;;;;;;2451260;55;20998;-69
2023/12/21 05:43:27;;;;;;;1.37;0.45;;;10.60;72.80;;;;;;2258480;55;20974;-69
2023/12/21 05:45:53;;;;;;;0.50;0.30;;;10.60;72.90;;;;;;2247663;56;20938;-70
2023/12/21 05:48:20;;;;;;;0.75;0.30;;;10.60;72.80;;;;;;2247937;56;21055;-70
2023/12/21 05:50:47;;;;;;;1.80;0.40;;;10.60;72.80;;;;;;2488893;54;21319;-69
2023/12/21 05:53:16;;;;;;;0.75;0.32;;;10.60;72.80;;;;;;2260276;56;20983;-69
2023/12/21 05:55:43;;;;;;;1.98;0.40;;;10.60;72.80;;;;;;2488664;54;20974;-69
2023/12/21 05:58:13;;;;;;;1.12;0.50;;;10.60;72.80;;;;;;2260244;56;20999;-70
2023/12/21 06:00:40;;;;;;;0.35;0.25;;;10.70;72.80;;;;;;2476558;55;21014;-69
2023/12/21 06:03:08;;;;;;;0.98;0.43;;;10.70;72.80;;;;;;2260572;56;20979;-69
2023/12/21 06:05:36;;;;;;;1.10;0.40;;;10.70;72.90;;;;;;2260789;56;21520;-69
2023/12/21 06:08:03;;;;;;;0.70;0.30;;;10.60;72.80;;;;;;2489171;54;20995;-69
2023/12/21 06:10:30;;;;;;;0.85;0.37;;;10.70;72.80;;;;;;2481798;55;20955;-70
2023/12/21 06:12:56;;;;;;;0.62;0.30;;;10.70;72.90;;;;;;2258647;55;20978;-70
2023/12/21 06:15:22;;;;;;;0.93;0.30;;;10.70;72.80;;;;;;2260685;55;21423;-69
2023/12/21 06:17:49;;;;;;;2.28;0.40;;;10.70;72.80;;;;;;2489134;55;20971;-69
2023/12/21 06:20:15;;;;;;;0.60;0.30;;;10.70;72.80;;;;;;2488820;55;20946;-70
2023/12/21 06:22:43;;;;;;;0.55;0.25;;;10.70;72.80;;;;;;2496297;54;21006;-70
2023/12/21 06:25:12;;;;;;;1.10;0.30;;;10.70;72.70;;;;;;2259933;56;21002;-69
2023/12/21 06:27:38;;;;;;;0.45;0.20;;;10.70;72.70;;;;;;2260593;55;21026;-69
2023/12/21 06:30:05;;;;;;;0.50;0.30;;;10.70;72.70;;;;;;2266120;56;21061;-69
2023/12/21 06:32:32;;;;;;;0.10;0.10;;;10.70;72.80;;;;;;2463598;55;20969;-69
2023/12/21 06:34:59;;;;;;;0.43;0.20;;;10.80;72.90;;;;;;2473290;55;21006;-70
2023/12/21 06:37:28;;;;;;;0.43;0.20;;;10.70;72.80;;;;;;2260445;56;20967;-70
2023/12/21 06:39:55;;;;;;;0.30;0.30;;;10.80;72.80;;;;;;2261109;56;20947;-69
2023/12/21 06:42:22;;;;;;;0.45;0.20;;;10.80;72.90;;;;;;2489398;54;20951;-69
2023/12/21 06:44:50;;;;;;;0.40;0.20;;;10.80;72.90;;;;;;2489708;55;21006;-70
2023/12/21 06:47:16;;;;;;;0.43;0.20;;;10.80;72.90;;;;;;2488405;55;20978;-69
2023/12/21 06:49:45;;;;;;;0.30;0.20;;;10.80;72.90;;;;;;2261380;56;20967;-69
2023/12/21 06:52:13;;;;;;;0.52;0.32;;;10.80;72.80;;;;;;2260841;55;21018;-69
2023/12/21 06:54:39;;;;;;;0.25;0.25;;;10.80;72.80;;;;;;2261319;56;21082;-69
2023/12/21 06:57:05;;;;;;;0.30;0.30;;;10.80;72.80;;;;;;2488281;54;21484;-73
2023/12/21 06:59:32;;;;;;;0.30;0.20;;;10.80;72.80;;;;;;2488416;54;21868;-70
2023/12/21 07:01:58;;;;;;;0.20;0.20;;;10.80;72.80;;;;;;2472938;55;21057;-71
2023/12/21 07:04:24;;;;;;;0.65;0.25;;;10.90;73.00;;;;;;2477916;55;21355;-69
2023/12/21 07:06:51;;;;;;;0.47;0.20;;;10.80;72.90;;;;;;2252452;56;21277;-70
2023/12/21 07:09:17;;;;;;;0.20;0.20;;;10.90;73.00;;;;;;2270623;56;20952;-70
2023/12/21 07:11:46;;;;;;;1.05;0.30;;;10.90;73.00;;;;;;2525817;54;20942;-70
2023/12/21 07:14:15;;;;;;;0.43;0.30;;;10.90;72.90;;;;;;2266533;56;20995;-70
2023/12/21 07:16:41;;;;;;;0.52;0.30;;;10.90;73.70;;;;;;2261014;55;20970;-69
2023/12/21 07:19:08;;;;;;;0.40;0.20;;;10.90;73.00;;;;;;2488493;54;21010;-70
2023/12/21 07:21:34;;;;;;;1.67;0.20;;;10.90;73.00;;;;;;2489398;54;20934;-70
2023/12/21 07:24:03;;;;;;;0.85;0.30;;;10.90;73.00;;;;;;2489299;54;20939;-71
2023/12/21 07:26:29;;;;;;;0.40;0.17;;;11.00;73.10;;;;;;2260840;56;20962;-70
2023/12/21 07:28:55;;;;;;;0.98;0.30;;;11.00;73.20;;;;;;2260597;56;21014;-69
2023/12/21 07:31:22;;;;;;;0.62;0.30;;;11.00;73.20;;;;;;2489515;54;20955;-70
2023/12/21 07:33:48;;;;;;;0.62;0.30;;;11.00;73.20;;;;;;2250757;56;21327;-69
2023/12/21 07:36:15;;;;;;;1.17;0.35;;;11.00;73.10;;;;;;2249576;56;20948;-70
2023/12/21 07:38:41;;;;;;;0.93;0.30;;;11.00;73.10;;;;;;2488213;54;20994;-69
2023/12/21 07:41:08;;;;;;;0.28;0.28;;;11.00;73.00;;;;;;2489098;54;21523;-70
2023/12/21 07:43:38;;;;;;;1.02;0.30;;;11.00;72.80;;;;;;2260648;56;20922;-69
2023/12/21 07:46:05;;;;;;;0.62;0.30;;;11.00;72.90;;;;;;2259945;55;21507;-69
2023/12/21 07:48:32;;;;;;;0.32;0.22;;;11.00;73.00;;;;;;2260775;55;20975;-70
2023/12/21 07:50:58;;;;;;;1.05;0.40;;;11.00;73.00;;;;;;2489154;55;20907;-69
2023/12/21 07:53:24;;;;;;;1.55;0.40;;;11.10;73.20;;;;;;2266116;55;20924;-69
2023/12/21 07:55:51;;;;;;;0.65;0.30;;;11.10;73.30;;;;;;2249873;56;21067;-69
2023/12/21 07:58:20;;;;;;;0.52;0.30;;;11.10;73.30;;;;;;2253044;56;21541;-69
2023/12/21 08:00:46;;;;;;;0.35;0.25;;;11.10;73.30;;;;;;2484127;55;20962;-69
2023/12/21 08:03:13;;;;;;;1.35;0.40;;;11.10;73.20;;;;;;2288239;55;20987;-70
2023/12/21 08:05:39;;;;;;;0.75;0.32;;;11.10;73.20;;;;;;2528902;54;20947;-70
2023/12/21 08:08:06;;;;;;;1.75;0.32;;;11.10;73.30;;;;;;2536200;54;20979;-69
2023/12/21 08:10:32;;;;;;;0.50;0.20;;;11.20;73.30;;;;;;2300507;56;21019;-69
2023/12/21 08:13:00;;;;;;;0.40;0.30;;;11.20;73.30;;;;;;2300002;55;20999;-69
2023/12/21 08:15:27;;;;;;;0.43;0.25;;;11.20;73.30;;;;;;2537019;54;21018;-68
2023/12/21 08:17:56;;;;;;;0.20;0.20;;;11.20;73.40;;;;;;2299660;55;20908;-69
2023/12/21 08:20:23;;;;;;;0.52;0.20;;;11.20;73.30;;;;;;2537066;54;20987;-69
2023/12/21 08:22:49;;;;;;;0.40;0.20;;;11.20;73.40;;;;;;2537120;54;21016;-70
2023/12/21 08:25:16;;;;;;;0.47;0.30;;;11.20;73.40;;;;;;2536567;54;21014;-70
2023/12/21 08:27:42;;;;;;;0.25;0.20;;;11.30;73.50;;;;;;2534114;54;21770;-70
2023/12/21 08:30:12;;;;;;;0.52;0.25;;;11.30;73.50;;;;;;2299323;56;21819;-70
2023/12/21 08:32:39;;;;;;;0.28;0.20;;;11.30;73.30;;;;;;2519720;54;21439;-70
2023/12/21 08:35:08;;;;;;;0.75;0.45;;;11.30;73.50;;;;;;2299855;55;21103;-70
2023/12/21 08:37:35;;;;;;;0.85;0.20;;;11.40;73.30;;;;;;2300106;55;21066;-70
2023/12/21 08:40:01;;;;;;;0.85;0.20;;;11.40;73.50;;;;;;2299830;56;20975;-69
2023/12/21 08:42:28;;;;;;;0.40;0.30;;;11.40;73.50;;;;;;2532340;54;20959;-71
2023/12/21 09:12:45;;;;;;;0.52;0.30;;;11.30;73.20;;;;;;2303745;58;21008;-70
2023/12/21 09:15:13;;;;;;;0.73;0.30;;;11.40;74.00;;;;;;2521047;54;20991;-70
2023/12/21 09:17:40;;;;;;;0.85;0.32;;;11.40;74.10;;;;;;2293934;56;21009;-70
2023/12/21 09:51:31;;;;;;;1.70;0.68;;;11.40;74.00;;;;;;2291715;58;22304;-70
2023/12/21 09:53:58;;;;;;;1.90;0.80;;;11.40;74.30;;;;;;2300027;55;20993;-70
2023/12/21 09:56:25;;;;;;;1.65;0.80;;;11.40;74.60;;;;;;2286577;55;20987;-70
2023/12/21 09:58:54;;;;;;;2.25;0.80;;;11.50;74.60;;;;;;2298943;56;21715;-70
2023/12/21 10:01:21;;;;;;;2.00;0.70;;;11.50;74.60;;;;;;2535345;54;21076;-69
2023/12/21 10:03:47;;;;;;;2.03;0.80;;;11.50;74.50;;;;;;2518296;54;21974;-71
2023/12/21 10:06:14;;;;;;;1.62;0.70;;;11.60;74.40;;;;;;2536901;54;21015;-68
2023/12/21 10:08:41;;;;;;;1.60;0.62;;;11.60;74.40;;;;;;2300949;56;21833;-70
2023/12/21 10:11:08;;;;;;;2.40;0.68;;;11.60;74.20;;;;;;2536076;54;21449;-69
2023/12/21 10:13:34;;;;;;;2.75;0.80;;;11.60;74.30;;;;;;2537645;54;20936;-70
2023/12/21 10:16:03;;;;;;;3.08;1.00;;;11.70;74.20;;;;;;2521406;54;21018;-71
2023/12/21 10:18:32;;;;;;;2.20;0.90;;;11.70;74.20;;;;;;2526314;54;20956;-70
2023/12/21 10:21:00;;;;;;;1.98;0.65;;;11.80;74.20;;;;;;2522916;54;20995;-71
2023/12/21 10:23:27;;;;;;;2.45;0.88;;;11.80;74.10;;;;;;2529862;54;21025;-70
2023/12/21 10:25:58;;;;;;;2.75;0.90;;;11.90;74.20;;;;;;2519269;54;21022;-70
2023/12/21 10:28:34;;;;;;;2.65;1.02;;;11.80;74.00;;;;;;2298094;56;21037;-71
2023/12/21 10:31:03;;;;;;;2.70;0.93;;;11.90;73.80;;;;;;2284771;55;20993;-71
2023/12/21 10:33:30;;;;;;;2.60;1.05;;;11.90;74.00;;;;;;2524442;54;20987;-70
2023/12/21 10:35:58;;;;;;;3.03;1.00;;;11.90;73.90;;;;;;2536819;54;20948;-70
2023/12/21 10:38:24;;;;;;;2.87;0.90;;;11.90;73.80;;;;;;2299842;55;20980;-70
2023/12/21 10:40:51;;;;;;;2.65;1.05;;;11.90;73.70;;;;;;2536621;54;20983;-70
2023/12/21 10:43:18;;;;;;;2.85;1.10;;;11.90;73.60;;;;;;2535967;54;20939;-70
2023/12/21 10:45:48;;;;;;;2.50;0.82;;;11.90;73.50;;;;;;2300351;56;21018;-70
2023/12/21 10:48:19;;;;;;;3.33;1.30;;;11.90;73.50;;;;;;2528916;54;21017;-70
2023/12/21 10:50:47;;;;;;;2.20;0.93;;;12.00;73.80;;;;;;2311061;56;20937;-70
2023/12/21 11:03:42;;;;;;;3.15;0.93;;;12.00;73.30;;;;;;2279936;57;21123;-70
2023/12/21 11:06:08;;;;;;;3.95;1.23;;;12.00;74.00;;;;;;2495156;54;20964;-69
2023/12/21 11:08:36;;;;;;;3.90;1.70;;;12.00;74.10;;;;;;2267044;56;20934;-70
2023/12/21 11:11:03;;;;;;;2.42;1.05;;;12.00;74.10;;;;;;2290587;56;20964;-70
2023/12/21 11:13:29;;;;;;;2.78;1.10;;;12.00;74.10;;;;;;2524046;54;20934;-69
2023/12/21 11:15:56;;;;;;;2.90;1.10;;;12.00;74.00;;;;;;2290218;56;20945;-70
2023/12/21 11:18:22;;;;;;;3.40;1.50;;;12.10;74.00;;;;;;2525302;54;21001;-70
2023/12/21 11:20:52;;;;;;;3.03;1.17;;;12.10;74.00;;;;;;2290816;56;20930;-70
2023/12/21 11:23:19;;;;;;;2.30;0.98;;;12.10;73.90;;;;;;2290646;56;20954;-71
2023/12/21 11:25:59;;;;;;;2.37;0.80;;;12.10;73.90;;;;;;2493504;54;20998;-70
2023/12/21 11:28:27;;;;;;;1.95;0.70;;;12.10;73.50;;;;;;2287870;56;21392;-70
2023/12/21 11:30:54;;;;;;;1.35;0.62;;;12.20;74.00;;;;;;2516957;54;21884;-69
2023/12/21 11:33:29;;;;;;;2.87;1.00;;;12.20;74.00;;;;;;2496101;54;21938;-70
2023/12/21 11:35:59;;;;;;;2.55;1.00;;;12.20;74.50;;;;;;2503679;54;21004;-71
2023/12/21 11:38:47;;;;;;;1.65;0.60;;;12.20;73.80;;;;;;2520693;54;20925;-71
2023/12/21 11:41:15;;;;;;;1.58;0.52;;;12.30;73.20;;;;;;2290252;56;20985;-70
2023/12/21 11:44:03;;;;;;;1.75;0.60;;;12.30;73.80;;;;;;2291423;56;21459;-70
2023/12/21 11:46:33;;;;;;;1.50;0.50;;;12.30;73.30;;;;;;2291029;56;20970;-71
2023/12/21 11:49:00;;;;;;;1.67;0.60;;;12.30;73.70;;;;;;2525596;54;21040;-70
2023/12/21 11:51:26;;;;;;;1.10;0.40;;;12.30;73.70;;;;;;2526188;54;20956;-70
2023/12/21 11:53:54;;;;;;;1.17;0.40;;;12.40;73.70;;;;;;2290643;56;21006;-71
2023/12/21 11:56:20;;;;;;;0.88;0.45;;;12.40;74.40;;;;;;2290800;56;21037;-70
2023/12/21 11:58:48;;;;;;;1.35;0.40;;;12.40;73.60;;;;;;2291865;56;20981;-71
2023/12/21 12:01:25;;;;;;;0.68;0.32;;;12.40;73.60;;;;;;2525240;54;21456;-70
2023/12/21 12:03:52;;;;;;;2.95;0.50;;;12.40;73.20;;;;;;2525547;54;20926;-70
2023/12/21 12:06:18;;;;;;;1.02;0.50;;;12.40;73.50;;;;;;2525398;54;20946;-70
2023/12/21 12:08:45;;;;;;;0.90;0.43;;;12.40;73.50;;;;;;2524550;54;21218;-71
2023/12/21 12:11:13;;;;;;;0.65;0.30;;;12.40;73.50;;;;;;2525376;54;20954;-70
2023/12/21 12:13:39;;;;;;;3.35;0.40;;;12.40;73.50;;;;;;2291743;56;20949;-70
2023/12/21 12:16:08;;;;;;;0.57;0.37;;;12.40;73.40;;;;;;2525806;54;21018;-71
2023/12/21 12:18:44;;;;;;;0.57;0.30;;;12.40;73.30;;;;;;2291326;56;20984;-71
2023/12/21 12:21:10;;;;;;;1.90;0.50;;;12.40;73.00;;;;;;2250969;56;21969;-71
2023/12/21 12:23:40;;;;;;;0.95;0.35;;;12.40;73.40;;;;;;2255557;55;21014;-70
2023/12/21 12:26:09;;;;;;;0.80;0.30;;;12.40;73.30;;;;;;2254979;55;21534;-68
2023/12/21 12:28:36;;;;;;;0.75;0.30;;;12.40;73.40;;;;;;2504198;55;21076;-70
2023/12/21 12:31:02;;;;;;;1.35;0.47;;;12.40;73.40;;;;;;2280698;56;20964;-70
2023/12/21 12:33:33;;;;;;;1.65;0.70;;;12.40;73.50;;;;;;2266644;55;21051;-71
2023/12/21 12:36:04;;;;;;;1.10;0.52;;;12.50;73.60;;;;;;2509649;54;21052;-71
2023/12/21 12:38:32;;;;;;;1.20;0.50;;;12.50;73.30;;;;;;2277817;55;21643;-69
2023/12/21 12:40:59;;;;;;;0.82;0.30;;;12.50;73.40;;;;;;2490785;55;21011;-70
2023/12/21 12:43:34;;;;;;;1.33;0.50;;;12.40;73.10;;;;;;2268652;55;20955;-69
2023/12/21 12:46:02;;;;;;;1.27;0.50;;;12.50;73.00;;;;;;2509072;55;20996;-71
2023/12/21 12:48:31;;;;;;;0.73;0.40;;;12.50;73.20;;;;;;2510033;55;21055;-70
2023/12/21 12:50:58;;;;;;;0.90;0.40;;;12.50;73.30;;;;;;2277483;56;21064;-71
2023/12/21 12:53:25;;;;;;;0.82;0.37;;;12.50;73.40;;;;;;2510133;54;20984;-70
2023/12/21 12:55:55;;;;;;;1.20;0.47;;;12.50;73.30;;;;;;2508827;55;21068;-70
2023/12/21 12:58:24;;;;;;;2.45;0.82;;;12.50;73.40;;;;;;2263788;57;21012;-70
2023/12/21 13:00:51;;;;;;;1.70;0.65;;;12.60;73.60;;;;;;2501316;54;21083;-70
2023/12/21 13:03:18;;;;;;;2.30;0.73;;;12.50;73.30;;;;;;2277182;56;20964;-70
2023/12/21 13:05:45;;;;;;;3.40;1.27;;;12.50;73.40;;;;;;2509208;55;21459;-69
2023/12/21 13:08:13;;;;;;;2.17;0.77;;;12.50;73.50;;;;;;2504193;54;21007;-70
2023/12/21 13:10:40;;;;;;;1.62;0.60;;;12.50;73.40;;;;;;2266835;56;20999;-70
2023/12/21 13:13:07;;;;;;;1.37;0.60;;;12.50;73.50;;;;;;2276334;56;20960;-70
2023/12/21 13:15:37;;;;;;;1.65;0.68;;;12.50;73.50;;;;;;2277089;55;20968;-69
2023/12/21 13:18:03;;;;;;;1.20;0.40;;;12.60;73.40;;;;;;2508978;54;21118;-70
2023/12/21 13:20:32;;;;;;;0.80;0.40;;;12.60;73.50;;;;;;2271050;55;20963;-70
2023/12/21 13:22:59;;;;;;;1.58;0.37;;;12.60;73.30;;;;;;2267986;56;21081;-69
2023/12/21 13:25:27;;;;;;;1.83;0.50;;;12.50;73.30;;;;;;2276499;56;21057;-70
2023/12/21 13:27:53;;;;;;;1.45;0.40;;;12.60;73.50;;;;;;2277477;56;20967;-71
2023/12/21 13:30:26;;;;;;;0.65;0.30;;;12.60;73.60;;;;;;2496163;55;21063;-71
2023/12/21 13:32:55;;;;;;;0.77;0.40;;;12.60;73.50;;;;;;2278105;56;20932;-70
2023/12/21 13:35:22;;;;;;;1.55;0.40;;;12.60;73.40;;;;;;2509632;54;21659;-70
2023/12/21 13:37:48;;;;;;;0.82;0.40;;;12.60;73.40;;;;;;2274926;56;22516;-70
2023/12/21 13:40:14;;;;;;;0.60;0.30;;;12.60;73.40;;;;;;2498562;55;21473;-70
2023/12/21 13:42:42;;;;;;;1.40;0.50;;;12.60;73.40;;;;;;2509906;55;20936;-71
2023/12/21 13:45:10;;;;;;;1.00;0.40;;;12.60;73.50;;;;;;2277311;55;21015;-69
2023/12/21 13:47:38;;;;;;;1.15;0.50;;;12.60;73.60;;;;;;2277270;56;21028;-69
2023/12/21 13:50:07;;;;;;;1.50;0.55;;;12.60;73.70;;;;;;2509627;54;21778;-71
2023/12/21 13:52:34;;;;;;;0.98;0.35;;;12.60;73.70;;;;;;2509739;54;21801;-71
2023/12/21 13:55:04;;;;;;;1.90;0.60;;;12.60;73.60;;;;;;2279679;55;21024;-71
2023/12/21 13:57:31;;;;;;;2.37;0.80;;;12.60;73.60;;;;;;2262981;56;21319;-70
2023/12/21 14:00:02;;;;;;;2.08;0.82;;;12.70;73.70;;;;;;2276876;56;21056;-68